• Join FlightAware (Why Join?)
  • Login
  • US Flag 
05:42PM EDT


 

Airport Tracker/Info


-or-


 

Live Flight TrackerFlight Track Log ✈ CSN6088 ✈ 01-Apr-2014 ✈ RKSI / ICN - ZYMD / MDG

Flight Track Log - Related Links

Times and Time Zones

All times are in EDT time to prevent confusion due to time zone crossing. See the CSN6088 flight status page for this flight to view local times or setup timezone preferences in your user account.

Time Position Orientation Groundspeed Altitude Reporting Facility
EDT Latitude Longitude Course Direction KTS MPH feet Rate Location/Type
12:12AM 37.5318 126.4754 17° North  Level Estimated
12:13AM 37.5946 126.5003 17° North  Level Estimated
12:14AM 37.6573 126.5252 17° North  Level Estimated
12:15AM 37.7200 126.5502 17° North  Level Estimated
12:16AM 37.7827 126.5752 18° North  Level Estimated
12:17AM 37.8454 126.6003 18° North  Level Estimated
12:18AM 37.9081 126.6254 18° North  Level Estimated
12:19AM 37.9708 126.6505 18° North  Level Estimated
12:20AM 38.0330 126.6755 18° North  Level Estimated
12:21AM 38.0951 126.7005 18° North  Level Estimated
12:22AM 38.1572 126.7256 18° North  Level Estimated
12:23AM 38.2194 126.7507 18° North  Level Estimated
12:24AM 38.2815 126.7758 18° North  Level Estimated
12:25AM 38.3436 126.8010 18° North  Level Estimated
12:26AM 38.4057 126.8262 18° North  Level Estimated
12:27AM 38.4678 126.8515 18° North  Level Estimated
12:28AM 38.5299 126.8768 18° North  Level Estimated
12:29AM 38.5920 126.9022 18° North  Level Estimated
12:30AM 38.6541 126.9276 18° North  Level Estimated
12:31AM 38.7162 126.9530 18° North  Level Estimated
12:32AM 38.7783 126.9785 18° North  Level Estimated
12:33AM 38.8404 127.0041 18° North  Level Estimated
12:34AM 38.9025 127.0296 18° North  Level Estimated
12:35AM 38.9645 127.0553 18° North  Level Estimated
12:36AM 39.0266 127.0809 18° North  Level Estimated
12:37AM 39.0886 127.1066 18° North  Level Estimated
12:38AM 39.1507 127.1324 18° North  Level Estimated
12:39AM 39.2127 127.1582 18° North  Level Estimated
12:40AM 39.2747 127.1841 18° North  Level Estimated
12:41AM 39.3368 127.2100 18° North  Level Estimated
12:42AM 39.3988 127.2359 18° North  Level Estimated
12:43AM 39.4608 127.2619 18° North  Level Estimated
12:44AM 39.5228 127.2879 18° North  Level Estimated
12:45AM 39.5848 127.3140 18° North  Level Estimated
12:46AM 39.6468 127.3401 18° North  Level Estimated
12:47AM 39.7088 127.3663 18° North  Level Estimated
12:48AM 39.7708 127.3925 18° North  Level Estimated
12:49AM 39.8328 127.4188 18° North  Level Estimated
12:50AM 39.8948 127.4451 18° North  Level Estimated
12:51AM 39.9567 127.4715 18° North  Level Estimated
12:52AM 40.0187 127.4979 18° North  Level Estimated
12:53AM 40.0807 127.5244 18° North  Level Estimated
12:54AM 40.1426 127.5509 18° North  Level Estimated
12:55AM 40.2046 127.5774 18° North  Level Estimated
12:56AM 40.2665 127.6040 18° North  Level Estimated
12:57AM 40.3285 127.6307 18° North  Level Estimated
12:58AM 40.3904 127.6574 18° North  Level Estimated
12:59AM 40.4523 127.6842 18° North  Level Estimated
01:00AM 40.5142 127.7110 18° North  Level Estimated
01:01AM 40.5761 127.7378 18° North  Level Estimated
01:02AM 40.6380 127.7647 18° North  Level Estimated
01:03AM 40.6999 127.7917 18° North  Level Estimated
01:04AM 40.7618 127.8187 18° North  Level Estimated
01:05AM 40.8237 127.8457 18° North  Level Estimated
01:06AM 40.8856 127.8728 18° North  Level Estimated
01:07AM 40.9475 127.9000 18° North  Level Estimated
01:08AM 41.0093 127.9272 18° North  Level Estimated
01:09AM 41.0712 127.9544 18° North  Level Estimated
01:10AM 41.1330 127.9818 18° North  Level Estimated
01:11AM 41.1949 128.0091 18° North  Level Estimated
01:12AM 41.2567 128.0365 18° North  Level Estimated
01:13AM 41.3186 128.0640 18° North  Level Estimated
01:14AM 41.3804 128.0915 18° North  Level Estimated
01:15AM 41.4422 128.1191 18° North  Level Estimated
01:16AM 41.5040 128.1467 19° North  Level Estimated
01:17AM 41.5658 128.1743 19° North  Level Estimated
01:18AM 41.6276 128.2021 19° North  Level Estimated
01:19AM 41.6894 128.2299 19° North  Level Estimated
01:20AM 41.7512 128.2577 19° North  Level Estimated
01:21AM 41.8130 128.2856 19° North  Level Estimated
01:22AM 41.8748 128.3135 19° North  Level Estimated
01:23AM 41.9365 128.3415 19° North  Level Estimated
01:24AM 41.9983 128.3696 19° North  Level Estimated
01:25AM 42.0601 128.3977 19° North  Level Estimated
01:26AM 42.1218 128.4258 19° North  Level Estimated
01:27AM 42.1835 128.4540 19° North  Level Estimated
01:28AM 42.2453 128.4823 19° North  Level Estimated
01:29AM 42.3070 128.5106 19° North  Level Estimated
01:30AM 42.3687 128.5390 19° North  Level Estimated
01:31AM 42.4304 128.5674 19° North  Level Estimated
01:32AM 42.4921 128.5959 19° North  Level Estimated
01:33AM 42.5538 128.6245 19° North  Level Estimated
01:34AM 42.6155 128.6531 19° North  Level Estimated
01:35AM 42.6772 128.6817 19° North  Level Estimated
01:36AM 42.7389 128.7104 19° North  Level Estimated
01:37AM 42.8006 128.7392 19° North  Level Estimated
01:38AM 42.8622 128.7681 19° North  Level Estimated
01:39AM 42.9239 128.7969 19° North  Level Estimated
01:40AM 42.9855 128.8259 19° North  Level Estimated
01:41AM 43.0472 128.8549 19° North  Level Estimated
01:42AM 43.1088 128.8840 19° North  Level Estimated
01:43AM 43.1704 128.9131 19° North  Level Estimated
01:44AM 43.2320 128.9422 19° North  Level Estimated
01:45AM 43.2937 128.9715 19° North  Level Estimated
01:46AM 43.3553 129.0008 19° North  Level Estimated
01:47AM 43.4169 129.0302 19° North  Level Estimated
01:48AM 43.4784 129.0596 19° North  Level Estimated
01:49AM 43.5400 129.0891 19° North  Level Estimated
01:50AM 43.6016 129.1186 19° North  Level Estimated
01:51AM 43.6632 129.1482 19° North  Level Estimated
01:52AM 43.7247 129.1778 19° North  Level Estimated
01:53AM 43.7863 129.2076 19° North  Level Estimated
01:54AM 43.8478 129.2373 19° North  Level Estimated
01:55AM 43.9093 129.2672 19° North  Level Estimated
01:56AM 43.9709 129.2971 19° North  Level Estimated
01:57AM 44.0324 129.3271 19° North  Level Estimated
01:58AM 44.0939 129.3571 19° North  Level Estimated
01:59AM 44.1554 129.3872 19° North  Level Estimated
02:00AM 44.2169 129.4173 19° North  Level Estimated
02:01AM 44.2784 129.4476 19° North  Level Estimated
02:02AM 44.3399 129.4778 19° North  Level Estimated
02:03AM 44.4013 129.5082 19° North  Level Estimated
02:04AM 44.4628 129.5386 19° North  Level Estimated
02:05AM 44.5241 129.5690 19° North  Level Estimated
02:06AM 44.5241 129.5690 North  Level Estimated
02:07AM 44.5241 129.5690 North  Level Estimated
02:08AM 44.5241 129.5690 North  Level Estimated
02:09AM 44.5241 129.5690 North  Level Estimated
02:10AM 44.5241 129.5690 North  Level Estimated
02:11AM 44.5241 129.5690 North  Level Estimated
02:12AM 44.5241 129.5690 North  Level Estimated